createdAt,value
2022-12-03T00:00:11.852Z,37.87
2022-12-03T00:05:14.775Z,35.63
2022-12-03T00:10:16.947Z,40.03
2022-12-03T00:15:19.255Z,34.60
2022-12-03T00:20:24.155Z,36.45
2022-12-03T00:25:26.469Z,37.80
2022-12-03T00:30:28.585Z,37.78
2022-12-03T00:35:30.669Z,37.95
2022-12-03T00:40:32.759Z,41.00
2022-12-03T00:45:34.815Z,40.90
2022-12-03T00:50:37.085Z,38.67
2022-12-03T00:55:39.218Z,42.22
2022-12-03T01:00:41.316Z,38.35
2022-12-03T01:05:43.336Z,40.37
2022-12-03T01:10:45.561Z,41.53
2022-12-03T01:15:47.775Z,41.43
2022-12-03T01:20:49.928Z,40.67
2022-12-03T01:25:52.056Z,43.17
2022-12-03T01:31:14.399Z,39.77
2022-12-03T01:36:16.610Z,40.00
2022-12-03T01:41:20.671Z,39.27
2022-12-03T01:46:27.449Z,41.25
2022-12-03T01:51:30.649Z,43.78
2022-12-03T01:56:32.836Z,44.23
2022-12-03T02:01:34.952Z,43.08
2022-12-03T02:06:37.094Z,40.10
2022-12-03T02:11:43.151Z,40.67
2022-12-03T02:16:46.084Z,41.90
2022-12-03T02:21:56.607Z,42.03
2022-12-03T02:26:58.970Z,44.45
2022-12-03T02:32:01.101Z,38.37
2022-12-03T02:37:06.236Z,42.55
2022-12-03T02:42:27.948Z,38.55
2022-12-03T02:47:31.910Z,38.13
2022-12-03T02:52:34.443Z,36.95
2022-12-03T02:57:38.829Z,40.90
2022-12-03T03:02:41.972Z,41.90
2022-12-03T03:07:44.686Z,38.20
2022-12-03T03:12:46.860Z,42.70
2022-12-03T03:17:49.078Z,39.40
2022-12-03T03:22:51.218Z,39.10
2022-12-03T03:27:53.396Z,39.92
2022-12-03T03:32:55.465Z,38.25
2022-12-03T03:37:58.829Z,38.27
2022-12-03T03:43:01.371Z,39.17
2022-12-03T03:48:03.865Z,39.23
2022-12-03T03:53:06.177Z,42.65
2022-12-03T03:58:08.762Z,38.92
2022-12-03T04:03:11.162Z,41.03
2022-12-03T04:08:13.294Z,42.58
2022-12-03T04:13:15.441Z,37.50
2022-12-03T04:18:36.011Z,39.03
2022-12-03T04:23:38.306Z,41.10
2022-12-03T04:28:49.495Z,40.10
2022-12-03T04:34:10.572Z,36.80
2022-12-03T04:39:12.656Z,40.10
2022-12-03T04:44:33.218Z,41.40
2022-12-03T04:49:37.581Z,43.22
2022-12-03T04:54:40.713Z,45.03
2022-12-03T04:59:42.846Z,44.30
2022-12-03T05:04:44.999Z,44.60
2022-12-03T05:09:47.069Z,45.47
2022-12-03T05:14:49.179Z,43.97
2022-12-03T05:20:10.058Z,40.00
2022-12-03T05:25:12.204Z,43.45
2022-12-03T05:30:14.705Z,45.57
2022-12-03T05:35:17.000Z,44.10
2022-12-03T05:40:20.376Z,45.17
2022-12-03T05:45:27.922Z,43.70
2022-12-03T05:50:32.825Z,40.50
2022-12-03T05:55:34.972Z,38.40
2022-12-03T06:00:42.380Z,40.97
2022-12-03T06:05:45.194Z,42.38
2022-12-03T06:10:47.275Z,45.40
2022-12-03T06:15:49.509Z,42.20
2022-12-03T06:20:51.703Z,43.33
2022-12-03T06:25:53.828Z,44.28
2022-12-03T06:30:55.968Z,42.13
2022-12-03T06:35:58.224Z,43.53
2022-12-03T06:41:00.293Z,43.10
2022-12-03T06:46:02.480Z,39.90
2022-12-03T06:51:04.745Z,43.85
2022-12-03T06:56:07.081Z,44.65
2022-12-03T07:01:09.351Z,43.57
2022-12-03T07:06:11.597Z,53.28
2022-12-03T07:11:32.162Z,46.40
2022-12-03T07:16:35.842Z,46.47
2022-12-03T07:21:38.325Z,42.22
2022-12-03T07:26:40.468Z,42.13
2022-12-03T07:31:42.603Z,44.30
2022-12-03T07:36:44.809Z,45.77
2022-12-03T07:41:47.009Z,43.42
2022-12-03T07:46:49.347Z,46.13
2022-12-03T07:51:54.824Z,44.47
2022-12-03T07:57:01.339Z,41.90
2022-12-03T08:02:04.277Z,43.57
2022-12-03T08:07:06.424Z,44.75
2022-12-03T08:12:16.438Z,44.75
2022-12-03T08:17:19.881Z,46.80
2022-12-03T08:22:22.358Z,47.85
2022-12-03T08:27:24.425Z,53.43
2022-12-03T08:32:26.727Z,52.47
2022-12-03T08:37:29.748Z,49.05
2022-12-03T08:42:42.996Z,47.23
2022-12-03T08:47:45.313Z,43.92
2022-12-03T08:52:47.421Z,47.30
2022-12-03T08:57:49.539Z,43.40
2022-12-03T09:02:58.954Z,44.05
2022-12-03T09:08:01.283Z,38.90
2022-12-03T09:13:03.536Z,42.00
2022-12-03T09:18:05.689Z,35.90
2022-12-03T09:23:08.228Z,35.83
2022-12-03T09:28:10.324Z,36.30
2022-12-03T09:33:12.520Z,36.47
2022-12-03T09:38:14.652Z,39.75
2022-12-03T09:43:17.121Z,37.47
2022-12-03T09:48:20.742Z,38.33
2022-12-03T09:53:28.553Z,34.53
2022-12-03T09:58:34.688Z,35.97
2022-12-03T10:03:42.810Z,34.15
2022-12-03T10:08:48.517Z,33.50
2022-12-03T10:13:51.545Z,38.25
2022-12-03T10:18:57.141Z,38.70
2022-12-03T10:24:25.849Z,36.03
2022-12-03T10:29:35.883Z,32.53
2022-12-03T10:34:41.502Z,33.90
2022-12-03T10:39:56.488Z,32.17
2022-12-03T10:45:22.400Z,27.77
2022-12-03T10:50:24.481Z,26.73
2022-12-03T10:55:28.957Z,28.55
2022-12-03T11:00:31.106Z,26.97
2022-12-03T11:05:33.852Z,25.02
2022-12-03T11:10:36.170Z,25.88
2022-12-03T11:15:45.309Z,27.17
2022-12-03T11:20:47.421Z,25.42
2022-12-03T11:25:50.636Z,26.53
2022-12-03T11:31:02.621Z,28.65
2022-12-03T11:36:04.766Z,26.02
2022-12-03T11:41:15.816Z,23.07
2022-12-03T11:46:21.866Z,23.70
2022-12-03T11:51:27.687Z,24.37
2022-12-03T11:56:30.263Z,25.00
2022-12-03T12:01:39.045Z,23.90
2022-12-03T12:06:43.783Z,24.10
2022-12-03T12:11:45.916Z,24.37
2022-12-03T12:16:55.299Z,22.07
2022-12-03T12:22:25.421Z,23.10
2022-12-03T12:27:35.200Z,21.60
2022-12-03T12:33:08.305Z,23.83
2022-12-03T12:38:19.800Z,23.95
2022-12-03T12:43:24.388Z,22.03
2022-12-03T12:48:31.099Z,27.48
2022-12-03T12:53:35.465Z,22.60
2022-12-03T12:58:37.700Z,23.40
2022-12-03T13:03:40.165Z,24.75
2022-12-03T13:08:48.823Z,24.37
2022-12-03T13:13:51.918Z,23.80
2022-12-03T13:18:56.480Z,22.45
2022-12-03T13:23:58.788Z,25.67
2022-12-03T13:29:06.344Z,25.62
2022-12-03T13:34:19.065Z,23.57
2022-12-03T13:39:27.751Z,25.30
2022-12-03T13:44:32.156Z,24.12
2022-12-03T13:49:34.839Z,43.73
2022-12-03T13:54:39.340Z,26.52
2022-12-03T13:59:41.604Z,23.23
2022-12-03T14:04:43.675Z,22.10
2022-12-03T14:09:45.780Z,25.08
2022-12-03T14:14:47.832Z,24.73
2022-12-03T14:19:50.101Z,22.73
2022-12-03T14:24:53.686Z,24.43
2022-12-03T14:29:56.230Z,22.52
2022-12-03T14:34:58.601Z,22.65
2022-12-03T14:40:00.690Z,24.23
2022-12-03T14:45:03.280Z,24.17
2022-12-03T14:50:06.107Z,21.90
2022-12-03T14:55:08.772Z,25.12
2022-12-03T15:00:11.783Z,27.25
2022-12-03T15:05:13.907Z,25.60
2022-12-03T15:10:16.905Z,25.17
2022-12-03T15:15:19.007Z,28.50
2022-12-03T15:20:21.218Z,30.88
2022-12-03T15:25:24.380Z,31.80
2022-12-03T15:30:26.473Z,30.00
2022-12-03T15:35:31.422Z,28.87
2022-12-03T15:40:33.524Z,29.47
2022-12-03T15:45:36.200Z,32.50
2022-12-03T15:50:40.317Z,33.55
2022-12-03T15:55:42.628Z,29.77
2022-12-03T16:00:44.764Z,30.33
2022-12-03T16:05:52.584Z,31.23
2022-12-03T16:10:54.810Z,31.27
2022-12-03T16:15:56.989Z,32.38
2022-12-03T16:20:59.127Z,34.07
2022-12-03T16:26:01.196Z,32.67
2022-12-03T16:31:04.032Z,31.90
2022-12-03T16:36:06.469Z,34.00
2022-12-03T16:41:09.745Z,34.53
2022-12-03T16:46:14.738Z,34.13
2022-12-03T16:51:19.315Z,30.98
2022-12-03T16:56:21.754Z,33.67
2022-12-03T17:01:24.050Z,33.72
2022-12-03T17:06:26.254Z,35.08
2022-12-03T17:11:28.495Z,37.37
2022-12-03T17:16:30.627Z,35.45
2022-12-03T17:21:35.027Z,46.60
2022-12-03T17:26:37.544Z,39.72
2022-12-03T17:31:42.208Z,35.95
2022-12-03T17:36:45.011Z,39.57
2022-12-03T17:41:47.094Z,37.95
2022-12-03T17:46:49.354Z,42.67
2022-12-03T17:51:51.574Z,40.55
2022-12-03T17:56:53.671Z,43.05
2022-12-03T18:01:55.807Z,39.60
2022-12-03T18:07:02.210Z,44.25
2022-12-03T18:12:05.095Z,44.47
2022-12-03T18:17:07.258Z,43.85
2022-12-03T18:22:09.887Z,46.50
2022-12-03T18:27:12.086Z,43.37
2022-12-03T18:32:27.606Z,42.95
2022-12-03T18:37:32.269Z,47.10
2022-12-03T18:42:34.407Z,44.10
2022-12-03T18:47:36.592Z,45.40
2022-12-03T18:52:39.374Z,43.87
2022-12-03T18:57:41.480Z,45.60
2022-12-03T19:03:02.377Z,49.00
2022-12-03T19:08:13.993Z,46.58
2022-12-03T19:13:16.246Z,45.42
2022-12-03T19:18:18.322Z,44.70
2022-12-03T19:23:20.574Z,45.78
2022-12-03T19:28:22.872Z,49.43
2022-12-03T19:33:28.615Z,50.63
2022-12-03T19:38:31.643Z,48.95
2022-12-03T19:43:36.496Z,48.27
2022-12-03T19:48:40.533Z,44.67
2022-12-03T19:53:43.055Z,47.00
2022-12-03T19:58:47.012Z,49.13
2022-12-03T20:03:51.578Z,46.30
2022-12-03T20:09:01.358Z,45.47
2022-12-03T20:14:09.024Z,48.40
2022-12-03T20:19:13.566Z,48.63
2022-12-03T20:24:17.384Z,44.80
2022-12-03T20:29:19.564Z,44.28
2022-12-03T20:34:21.643Z,46.93
2022-12-03T20:39:23.869Z,46.53
2022-12-03T20:44:25.979Z,48.07
2022-12-03T20:49:28.067Z,46.30
2022-12-03T20:54:30.299Z,48.08
2022-12-03T20:59:32.987Z,47.13
2022-12-03T21:04:35.180Z,54.03
2022-12-03T21:09:37.499Z,50.53
2022-12-03T21:14:39.729Z,48.03
2022-12-03T21:19:41.814Z,54.25
2022-12-03T21:24:44.136Z,52.70
2022-12-03T21:29:46.178Z,54.25
2022-12-03T21:34:48.252Z,57.17
2022-12-03T21:39:50.461Z,50.35
2022-12-03T21:44:52.676Z,52.58
2022-12-03T21:49:55.194Z,56.17
2022-12-03T21:54:57.509Z,53.75
2022-12-03T21:59:59.796Z,49.40
2022-12-03T22:05:01.877Z,47.05
2022-12-03T22:10:06.009Z,49.35
2022-12-03T22:15:14.881Z,47.00
2022-12-03T22:20:20.609Z,49.15
2022-12-03T22:25:22.732Z,48.57
2022-12-03T22:30:25.111Z,46.20
2022-12-03T22:35:27.195Z,46.10
2022-12-03T22:40:29.276Z,48.40
2022-12-03T22:45:31.342Z,47.72
2022-12-03T22:50:33.467Z,45.90
2022-12-03T22:55:35.545Z,51.90
2022-12-03T23:00:40.588Z,49.92
2022-12-03T23:05:42.710Z,49.10
2022-12-03T23:10:46.714Z,48.00
2022-12-03T23:15:51.852Z,48.40
2022-12-03T23:20:56.116Z,49.63
2022-12-03T23:26:07.457Z,46.95
2022-12-03T23:31:28.439Z,50.53
2022-12-03T23:36:32.756Z,49.88
2022-12-03T23:41:34.825Z,46.83
2022-12-03T23:46:39.229Z,44.25
2022-12-03T23:51:41.406Z,48.63
2022-12-03T23:56:43.570Z,48.20
